createdAt,value
2023-04-17T00:02:04.786Z,10.13
2023-04-17T00:04:32.745Z,10.13
2023-04-17T00:07:03.675Z,10.12
2023-04-17T00:09:31.588Z,10.16
2023-04-17T00:11:58.604Z,10.15
2023-04-17T00:14:25.720Z,10.11
2023-04-17T00:16:52.839Z,10.15
2023-04-17T00:19:20.194Z,10.15
2023-04-17T00:21:47.160Z,10.14
2023-04-17T00:24:15.439Z,10.15
2023-04-17T00:26:42.611Z,10.15
2023-04-17T00:29:09.957Z,10.11
2023-04-17T00:31:37.677Z,10.13
2023-04-17T00:34:04.860Z,10.13
2023-04-17T00:36:32.335Z,10.12
2023-04-17T00:38:59.748Z,10.11
2023-04-17T00:41:27.490Z,10.10
2023-04-17T00:43:55.047Z,10.14
2023-04-17T00:46:22.612Z,10.10
2023-04-17T00:48:49.998Z,10.08
2023-04-17T00:51:17.241Z,10.07
2023-04-17T00:53:45.301Z,10.04
2023-04-17T00:56:13.071Z,9.99
2023-04-17T00:58:40.742Z,9.95
2023-04-17T01:01:08.289Z,9.87
2023-04-17T01:03:35.704Z,9.91
2023-04-17T01:06:04.174Z,9.88
2023-04-17T01:08:49.941Z,9.87
2023-04-17T01:11:18.859Z,9.87
2023-04-17T01:13:50.387Z,9.88
2023-04-17T01:16:19.643Z,9.89
2023-04-17T01:18:50.541Z,9.90
2023-04-17T01:21:18.413Z,9.94
2023-04-17T01:23:52.351Z,9.95
2023-04-17T01:26:23.271Z,9.94
2023-04-17T01:28:52.215Z,9.91
2023-04-17T01:31:19.718Z,9.90
2023-04-17T01:33:47.165Z,9.92
2023-04-17T01:36:14.712Z,9.89
2023-04-17T01:38:42.021Z,9.92
2023-04-17T01:41:13.432Z,9.91
2023-04-17T01:43:46.231Z,9.89
2023-04-17T01:46:13.966Z,9.87
2023-04-17T01:48:41.162Z,9.86
2023-04-17T01:51:10.059Z,9.88
2023-04-17T01:53:40.220Z,9.88
2023-04-17T01:56:08.180Z,9.88
2023-04-17T01:58:35.236Z,9.87
2023-04-17T02:01:02.374Z,9.82
2023-04-17T02:03:29.476Z,9.83
2023-04-17T02:05:56.656Z,9.79
2023-04-17T02:08:24.133Z,9.78
2023-04-17T02:10:51.480Z,9.74
2023-04-17T02:13:18.738Z,9.74
2023-04-17T02:15:46.111Z,9.70
2023-04-17T02:18:15.825Z,9.66
2023-04-17T02:20:42.806Z,9.66
2023-04-17T02:23:10.071Z,9.65
2023-04-17T02:25:37.106Z,9.63
2023-04-17T02:28:05.080Z,9.63
2023-04-17T02:30:34.349Z,9.61
2023-04-17T02:33:02.247Z,9.61
2023-04-17T02:35:31.887Z,9.63
2023-04-17T02:37:59.184Z,9.64
2023-04-17T02:40:27.804Z,9.64
2023-04-17T02:43:01.068Z,9.62
2023-04-17T02:45:30.284Z,9.63
2023-04-17T02:47:58.404Z,9.63
2023-04-17T02:50:25.511Z,9.59
2023-04-17T02:53:09.194Z,9.58
2023-04-17T02:55:36.517Z,9.56
2023-04-17T02:58:03.498Z,9.58
2023-04-17T03:00:30.585Z,9.59
2023-04-17T03:02:57.722Z,9.56
2023-04-17T03:05:24.768Z,9.60
2023-04-17T03:07:54.206Z,9.60
2023-04-17T03:10:21.749Z,9.63
2023-04-17T03:12:51.047Z,9.63
2023-04-17T03:15:18.154Z,9.65
2023-04-17T03:17:45.715Z,9.66
2023-04-17T03:20:12.847Z,9.66
2023-04-17T03:22:41.955Z,9.66
2023-04-17T03:25:10.651Z,9.65
2023-04-17T03:27:48.644Z,9.66
2023-04-17T03:30:17.974Z,9.67
2023-04-17T03:32:48.586Z,9.68
2023-04-17T03:35:15.546Z,9.68
2023-04-17T03:37:43.116Z,9.66
2023-04-17T03:40:13.713Z,9.64
2023-04-17T03:42:44.095Z,9.68
2023-04-17T03:45:11.432Z,9.67
2023-04-17T03:47:38.893Z,9.66
2023-04-17T03:50:07.156Z,9.68
2023-04-17T03:52:39.584Z,9.68
2023-04-17T03:55:07.574Z,9.68
2023-04-17T03:57:34.988Z,9.61
2023-04-17T04:00:03.142Z,9.59
2023-04-17T04:02:46.794Z,9.58
2023-04-17T04:05:18.864Z,9.58
2023-04-17T04:07:46.723Z,9.58
2023-04-17T04:10:20.106Z,9.58
2023-04-17T04:12:48.603Z,9.54
2023-04-17T04:15:16.948Z,9.47
2023-04-17T04:17:47.284Z,9.42
2023-04-17T04:20:14.990Z,9.41
2023-04-17T04:22:45.072Z,9.41
2023-04-17T04:25:13.034Z,9.43
2023-04-17T04:27:50.146Z,9.44
2023-04-17T04:30:26.025Z,9.46
2023-04-17T04:33:01.382Z,9.48
2023-04-17T04:35:30.696Z,9.47
2023-04-17T04:38:03.158Z,9.47
2023-04-17T04:40:38.585Z,9.50
2023-04-17T04:43:07.575Z,9.51
2023-04-17T04:45:43.169Z,9.54
2023-04-17T04:48:11.007Z,9.55
2023-04-17T04:50:38.153Z,9.56
2023-04-17T04:53:07.449Z,9.55
2023-04-17T04:55:43.379Z,9.58
2023-04-17T04:58:11.036Z,9.57
2023-04-17T05:00:39.658Z,9.56
2023-04-17T05:03:13.444Z,9.53
2023-04-17T05:05:42.556Z,9.50
2023-04-17T05:08:14.204Z,9.49
2023-04-17T05:10:46.616Z,9.48
2023-04-17T05:13:16.245Z,9.49
2023-04-17T05:15:44.437Z,9.49
2023-04-17T05:18:16.335Z,9.52
2023-04-17T05:20:45.569Z,9.55
2023-04-17T05:23:12.640Z,9.55
2023-04-17T05:25:46.779Z,9.56
2023-04-17T05:28:16.799Z,9.56
2023-04-17T05:30:45.080Z,9.54
2023-04-17T05:33:18.730Z,9.53
2023-04-17T05:35:50.398Z,9.52
2023-04-17T05:38:20.558Z,9.52
2023-04-17T05:40:48.010Z,9.52
2023-04-17T05:43:16.808Z,9.54
2023-04-17T05:45:43.768Z,9.53
2023-04-17T05:48:11.053Z,9.49
2023-04-17T05:50:39.005Z,9.48
2023-04-17T05:53:07.515Z,9.48
2023-04-17T05:55:39.818Z,9.48
2023-04-17T06:00:44.168Z,9.44
2023-04-17T06:03:18.524Z,9.45
2023-04-17T06:05:47.853Z,9.46
2023-04-17T06:08:16.644Z,9.43
2023-04-17T06:10:47.835Z,9.45
2023-04-17T06:13:15.245Z,9.46
2023-04-17T06:15:45.988Z,9.54
2023-04-17T06:18:16.521Z,9.59
2023-04-17T06:20:45.952Z,9.64
2023-04-17T06:23:13.697Z,9.67
2023-04-17T06:25:41.375Z,9.69
2023-04-17T06:28:09.124Z,9.70
2023-04-17T06:30:38.203Z,9.74
2023-04-17T06:33:06.777Z,9.75
2023-04-17T06:35:37.965Z,9.80
2023-04-17T06:38:31.702Z,9.83
2023-04-17T06:40:59.364Z,9.78
2023-04-17T06:43:26.359Z,9.85
2023-04-17T06:45:54.166Z,9.85
2023-04-17T06:48:21.356Z,9.90
2023-04-17T06:50:49.279Z,9.91
2023-04-17T06:53:16.379Z,9.93
2023-04-17T06:55:43.507Z,9.98
2023-04-17T06:58:11.370Z,9.96
2023-04-17T07:00:38.694Z,10.00
2023-04-17T07:03:06.803Z,9.98
2023-04-17T07:05:33.926Z,9.95
2023-04-17T07:08:01.374Z,9.99
2023-04-17T07:10:28.320Z,10.02
2023-04-17T07:12:55.567Z,10.07
2023-04-17T07:15:22.576Z,10.11
2023-04-17T07:17:49.620Z,10.12
2023-04-17T07:20:16.803Z,10.11
2023-04-17T07:22:43.881Z,10.17
2023-04-17T07:25:11.658Z,10.23
2023-04-17T07:27:39.653Z,10.27
2023-04-17T07:30:08.975Z,10.31
2023-04-17T07:32:36.458Z,10.36
2023-04-17T07:35:04.731Z,10.37
2023-04-17T07:37:31.677Z,10.36
2023-04-17T07:40:00.054Z,10.38
2023-04-17T07:42:27.080Z,10.36
2023-04-17T07:44:54.248Z,10.36
2023-04-17T07:47:21.906Z,10.35
2023-04-17T07:49:49.328Z,10.31
2023-04-17T07:52:18.289Z,10.35
2023-04-17T07:54:47.098Z,10.37
2023-04-17T07:57:15.945Z,10.42
2023-04-17T07:59:43.226Z,10.51
2023-04-17T08:02:11.768Z,10.56
2023-04-17T08:04:40.832Z,10.57
2023-04-17T08:07:10.877Z,10.59
2023-04-17T08:09:40.612Z,10.59
2023-04-17T08:12:09.289Z,10.60
2023-04-17T08:14:36.488Z,10.60
2023-04-17T08:17:04.478Z,10.66
2023-04-17T08:19:32.230Z,10.72
2023-04-17T08:22:05.380Z,10.74
2023-04-17T08:24:32.384Z,10.78
2023-04-17T08:26:59.318Z,10.79
2023-04-17T08:29:28.968Z,10.80
2023-04-17T08:32:12.704Z,10.81
2023-04-17T08:34:41.784Z,10.89
2023-04-17T08:37:08.687Z,10.90
2023-04-17T08:39:35.688Z,10.93
2023-04-17T08:42:08.054Z,10.95
2023-04-17T08:44:36.076Z,10.98
2023-04-17T08:47:04.891Z,11.02
2023-04-17T08:49:35.521Z,11.01
2023-04-17T08:52:04.649Z,11.09
2023-04-17T08:54:33.714Z,11.09
2023-04-17T08:57:05.257Z,11.16
2023-04-17T08:59:33.556Z,11.17
2023-04-17T09:02:07.436Z,11.21
2023-04-17T09:04:43.200Z,11.21
2023-04-17T09:07:15.704Z,11.20
2023-04-17T09:09:51.181Z,11.19
2023-04-17T09:12:19.991Z,11.16
2023-04-17T09:14:47.460Z,11.18
2023-04-17T09:17:17.584Z,11.17
2023-04-17T09:20:04.739Z,11.13
2023-04-17T09:22:32.503Z,11.13
2023-04-17T09:25:00.058Z,11.14
2023-04-17T09:27:28.634Z,11.11
2023-04-17T09:29:57.119Z,11.11
2023-04-17T09:32:24.789Z,11.08
2023-04-17T09:34:53.416Z,11.08
2023-04-17T09:37:23.384Z,11.08
2023-04-17T09:39:59.362Z,11.02
2023-04-17T09:42:29.042Z,11.02
2023-04-17T09:44:58.388Z,11.05
2023-04-17T09:47:25.568Z,11.06
2023-04-17T09:49:53.113Z,11.12
2023-04-17T09:52:23.874Z,11.14
2023-04-17T09:54:53.964Z,11.17
2023-04-17T09:57:21.436Z,11.19
2023-04-17T09:59:49.402Z,11.21
2023-04-17T10:02:19.183Z,11.16
2023-04-17T10:04:47.926Z,11.16
2023-04-17T10:07:16.825Z,11.10
2023-04-17T10:09:47.449Z,11.07
2023-04-17T10:12:18.004Z,11.16
2023-04-17T10:14:51.524Z,11.13
2023-04-17T10:17:31.996Z,11.10
2023-04-17T10:20:20.466Z,11.08
2023-04-17T10:22:54.615Z,11.03
2023-04-17T10:25:23.061Z,11.05
2023-04-17T10:27:52.507Z,11.00
2023-04-17T10:30:23.215Z,10.98
2023-04-17T10:33:22.160Z,11.07
2023-04-17T10:35:49.532Z,11.10
2023-04-17T10:38:17.820Z,10.97
2023-04-17T10:40:45.317Z,10.88
2023-04-17T10:43:20.530Z,10.77
2023-04-17T10:46:03.711Z,10.74
2023-04-17T10:48:46.542Z,10.69
2023-04-17T10:51:29.503Z,10.62
2023-04-17T10:54:03.452Z,10.55
2023-04-17T10:56:42.714Z,10.54
2023-04-17T10:59:14.328Z,10.59
2023-04-17T11:01:52.496Z,10.68
2023-04-17T11:04:21.729Z,10.73
2023-04-17T11:06:49.468Z,10.84
2023-04-17T11:09:16.841Z,10.89
2023-04-17T11:11:45.190Z,10.95
2023-04-17T11:14:17.870Z,11.01
2023-04-17T11:16:47.061Z,11.02
2023-04-17T11:19:23.188Z,11.07
2023-04-17T11:21:55.331Z,11.14
2023-04-17T11:24:34.861Z,11.22
2023-04-17T11:27:02.331Z,11.14
2023-04-17T11:29:29.921Z,11.11
2023-04-17T11:31:58.973Z,11.11
2023-04-17T11:34:27.161Z,11.06
2023-04-17T11:36:59.826Z,11.05
2023-04-17T11:39:33.433Z,11.09
2023-04-17T11:42:03.564Z,11.06
2023-04-17T11:44:30.843Z,11.08
2023-04-17T11:47:01.725Z,11.10
2023-04-17T11:49:30.509Z,11.09
2023-04-17T11:52:00.878Z,11.09
2023-04-17T11:54:39.373Z,11.09
2023-04-17T11:57:13.079Z,11.11
2023-04-17T11:59:42.407Z,11.10
2023-04-17T12:02:09.952Z,11.08
2023-04-17T12:04:38.166Z,11.09
2023-04-17T12:07:07.137Z,11.13
2023-04-17T12:09:35.716Z,11.16
2023-04-17T12:12:08.267Z,11.17
2023-04-17T12:14:36.486Z,11.18
2023-04-17T12:17:06.574Z,11.06
2023-04-17T12:19:34.055Z,10.91
2023-04-17T12:22:01.116Z,10.79
2023-04-17T12:24:28.194Z,10.79
2023-04-17T12:26:55.215Z,10.79
2023-04-17T12:29:32.738Z,10.86
2023-04-17T12:32:11.069Z,10.94
2023-04-17T12:34:38.783Z,10.94
2023-04-17T12:37:05.914Z,10.91
2023-04-17T12:39:33.051Z,10.76
2023-04-17T12:41:59.994Z,10.68
2023-04-17T12:44:28.614Z,10.57
2023-04-17T12:46:56.026Z,10.54
2023-04-17T12:49:24.279Z,10.37
2023-04-17T12:51:51.697Z,10.28
2023-04-17T12:54:19.393Z,10.26
2023-04-17T12:56:46.408Z,10.23
2023-04-17T12:59:13.373Z,10.21
2023-04-17T13:01:40.497Z,10.12
2023-04-17T13:04:07.996Z,10.06
2023-04-17T13:06:35.171Z,10.07
2023-04-17T13:09:02.228Z,10.18
2023-04-17T13:11:29.296Z,10.22
2023-04-17T13:13:56.767Z,10.22
2023-04-17T13:16:24.107Z,10.36
2023-04-17T13:18:51.116Z,10.46
2023-04-17T13:21:18.103Z,10.50
2023-04-17T13:23:45.091Z,10.63
2023-04-17T13:26:12.142Z,10.67
2023-04-17T13:28:40.129Z,10.73
2023-04-17T13:31:07.342Z,10.73
2023-04-17T13:33:34.892Z,10.68
2023-04-17T13:36:01.818Z,10.66
2023-04-17T13:38:30.689Z,10.70
2023-04-17T13:41:00.039Z,10.78
2023-04-17T13:43:27.126Z,10.87
2023-04-17T13:45:55.655Z,11.02
2023-04-17T13:48:22.757Z,11.04
2023-04-17T13:50:49.760Z,11.14
2023-04-17T13:53:16.749Z,11.22
2023-04-17T13:55:43.723Z,11.24
2023-04-17T13:58:11.084Z,11.23
2023-04-17T14:00:38.112Z,11.23
2023-04-17T14:03:05.592Z,11.23
2023-04-17T14:05:32.817Z,11.19
2023-04-17T14:07:59.887Z,11.23
2023-04-17T14:10:27.145Z,11.30
2023-04-17T14:12:54.253Z,11.38
2023-04-17T14:15:21.612Z,11.43
2023-04-17T14:17:48.746Z,11.49
2023-04-17T14:20:17.702Z,11.49
2023-04-17T14:22:45.010Z,11.55
2023-04-17T14:25:13.374Z,11.51
2023-04-17T14:27:42.232Z,11.49
2023-04-17T14:30:09.638Z,11.55
2023-04-17T14:32:39.272Z,11.67
2023-04-17T14:35:07.549Z,11.76
2023-04-17T14:37:34.904Z,11.81
2023-04-17T14:40:01.904Z,11.83
2023-04-17T14:42:28.959Z,11.86
2023-04-17T14:44:55.974Z,11.82
2023-04-17T14:47:24.423Z,11.83
2023-04-17T14:49:52.118Z,11.81
2023-04-17T14:52:19.113Z,11.66
2023-04-17T14:54:46.104Z,11.57
2023-04-17T14:57:13.320Z,11.54
2023-04-17T14:59:40.738Z,11.45
2023-04-17T15:02:07.910Z,11.32
2023-04-17T15:04:35.297Z,11.24
2023-04-17T15:07:05.097Z,11.22
2023-04-17T15:09:32.761Z,11.17
2023-04-17T15:12:01.108Z,11.13
2023-04-17T15:14:30.194Z,11.12
2023-04-17T15:16:58.960Z,11.13
2023-04-17T15:19:26.178Z,11.14
2023-04-17T15:21:53.463Z,11.13
2023-04-17T15:24:20.339Z,11.15
2023-04-17T15:26:47.538Z,11.12
2023-04-17T15:29:14.975Z,11.13
2023-04-17T15:31:42.136Z,11.15
2023-04-17T15:34:09.553Z,11.11
2023-04-17T15:36:36.552Z,11.07
2023-04-17T15:39:04.300Z,11.15
2023-04-17T15:41:32.820Z,11.05
2023-04-17T15:44:01.169Z,10.90
2023-04-17T15:46:31.956Z,10.85
2023-04-17T15:49:08.211Z,10.76
2023-04-17T15:51:38.041Z,10.77
2023-04-17T15:54:06.098Z,10.79
2023-04-17T15:56:34.864Z,10.88
2023-04-17T15:59:03.351Z,10.93
2023-04-17T16:01:30.623Z,10.94
2023-04-17T16:03:57.873Z,10.93
2023-04-17T16:06:26.049Z,10.84
2023-04-17T16:08:53.028Z,10.87
2023-04-17T16:11:20.156Z,10.81
2023-04-17T16:13:47.103Z,10.79
2023-04-17T16:16:14.140Z,10.79
2023-04-17T16:18:42.509Z,10.75
2023-04-17T16:21:12.361Z,10.74
2023-04-17T16:23:40.526Z,10.74
2023-04-17T16:26:08.400Z,10.78
2023-04-17T16:28:35.529Z,10.77
2023-04-17T16:31:02.714Z,10.79
2023-04-17T16:33:29.844Z,10.78
2023-04-17T16:35:57.693Z,10.88
2023-04-17T16:38:24.827Z,10.91
2023-04-17T16:40:54.050Z,10.94
2023-04-17T16:43:22.277Z,10.91
2023-04-17T16:45:50.455Z,10.93
2023-04-17T16:48:18.232Z,10.95
2023-04-17T16:50:45.806Z,10.96
2023-04-17T16:53:13.800Z,10.99
2023-04-17T16:55:42.486Z,10.99
2023-04-17T16:58:10.971Z,10.98
2023-04-17T17:00:39.165Z,10.97
2023-04-17T17:03:06.289Z,10.92
2023-04-17T17:05:33.543Z,10.91
2023-04-17T17:08:00.893Z,10.88
2023-04-17T17:10:28.961Z,10.87
2023-04-17T17:12:56.833Z,10.82
2023-04-17T17:15:24.243Z,10.77
2023-04-17T17:17:51.409Z,10.74
2023-04-17T17:20:20.589Z,10.67
2023-04-17T17:22:47.655Z,10.58
2023-04-17T17:25:14.718Z,10.46
2023-04-17T17:27:43.089Z,10.40
2023-04-17T17:30:10.973Z,10.36
2023-04-17T17:32:38.874Z,10.33
2023-04-17T17:35:06.320Z,10.36
2023-04-17T17:37:33.295Z,10.39
2023-04-17T17:40:00.941Z,10.32
2023-04-17T17:42:31.116Z,10.30
2023-04-17T17:44:59.375Z,10.31
2023-04-17T17:47:26.517Z,10.27
2023-04-17T17:49:54.176Z,10.27
2023-04-17T17:52:21.724Z,10.27
2023-04-17T17:54:49.439Z,10.24
2023-04-17T17:57:16.406Z,10.20
2023-04-17T17:59:43.399Z,10.14
2023-04-17T18:02:11.459Z,10.09
2023-04-17T18:04:38.847Z,10.03
2023-04-17T18:07:05.880Z,9.94
2023-04-17T18:09:33.150Z,9.91
2023-04-17T18:12:02.203Z,9.83
2023-04-17T18:14:31.538Z,9.79
2023-04-17T18:16:58.534Z,9.76
2023-04-17T18:19:25.985Z,9.73
2023-04-17T18:21:52.931Z,9.65
2023-04-17T18:24:19.873Z,9.57
2023-04-17T18:26:47.932Z,9.48
2023-04-17T18:29:16.675Z,9.39
2023-04-17T18:31:43.742Z,9.38
2023-04-17T18:34:10.845Z,9.37
2023-04-17T18:36:39.038Z,9.34
2023-04-17T18:39:06.117Z,9.33
2023-04-17T18:41:34.941Z,9.30
2023-04-17T18:44:03.299Z,9.25
2023-04-17T18:46:31.025Z,9.19
2023-04-17T18:48:58.640Z,9.14
2023-04-17T18:51:26.612Z,9.10
2023-04-17T18:53:55.095Z,9.05
2023-04-17T18:56:24.235Z,9.03
2023-04-17T18:58:51.551Z,9.01
2023-04-17T19:01:18.622Z,8.94
2023-04-17T19:03:46.404Z,8.91
2023-04-17T19:06:13.452Z,8.87
2023-04-17T19:08:42.328Z,8.84
2023-04-17T19:11:09.314Z,8.79
2023-04-17T19:13:36.438Z,8.76
2023-04-17T19:16:03.397Z,8.72
2023-04-17T19:18:31.147Z,8.63
2023-04-17T19:20:58.054Z,8.54
2023-04-17T19:23:26.547Z,8.54
2023-04-17T19:25:56.791Z,8.52
2023-04-17T19:28:24.701Z,8.49
2023-04-17T19:30:53.398Z,8.43
2023-04-17T19:33:20.889Z,8.41
2023-04-17T19:35:47.885Z,8.35
2023-04-17T19:38:16.931Z,8.34
2023-04-17T19:41:07.410Z,8.31
2023-04-17T19:43:34.394Z,8.28
2023-04-17T19:46:01.792Z,8.24
2023-04-17T19:48:29.073Z,8.25
2023-04-17T19:50:56.106Z,8.22
2023-04-17T19:53:23.310Z,8.19
2023-04-17T19:55:50.349Z,8.17
2023-04-17T19:58:17.251Z,8.14
2023-04-17T20:00:44.556Z,8.15
2023-04-17T20:03:11.651Z,8.13
2023-04-17T20:05:38.754Z,8.10
2023-04-17T20:08:09.400Z,8.09
2023-04-17T20:10:36.992Z,8.10
2023-04-17T20:13:03.961Z,8.07
2023-04-17T20:15:32.329Z,8.07
2023-04-17T20:18:15.121Z,8.07
2023-04-17T20:20:42.387Z,8.04
2023-04-17T20:23:10.985Z,7.99
2023-04-17T20:25:38.888Z,7.99
2023-04-17T20:28:07.455Z,7.95
2023-04-17T20:30:38.048Z,7.93
2023-04-17T20:33:05.500Z,7.89
2023-04-17T20:35:32.529Z,7.90
2023-04-17T20:37:59.788Z,7.90
2023-04-17T20:40:27.357Z,7.86
2023-04-17T20:42:55.655Z,7.82
2023-04-17T20:45:22.749Z,7.78
2023-04-17T20:47:55.942Z,7.73
2023-04-17T20:50:26.623Z,7.75
2023-04-17T20:52:53.554Z,7.70
2023-04-17T20:55:22.072Z,7.65
2023-04-17T20:57:49.925Z,7.65
2023-04-17T21:00:17.987Z,7.62
2023-04-17T21:02:46.100Z,7.60
2023-04-17T21:05:15.508Z,7.59
2023-04-17T21:07:42.949Z,7.55
2023-04-17T21:10:12.081Z,7.53
2023-04-17T21:12:40.058Z,7.50
2023-04-17T21:15:08.230Z,7.50
2023-04-17T21:17:36.235Z,7.50
2023-04-17T21:20:07.018Z,7.47
2023-04-17T21:22:34.149Z,7.43
2023-04-17T21:25:03.345Z,7.44
2023-04-17T21:27:31.127Z,7.42
2023-04-17T21:29:59.977Z,7.38
2023-04-17T21:32:27.360Z,7.35
2023-04-17T21:34:56.039Z,7.36
2023-04-17T21:37:23.388Z,7.34
2023-04-17T21:39:51.995Z,7.33
2023-04-17T21:42:20.252Z,7.32
2023-04-17T21:44:49.845Z,7.33
2023-04-17T21:47:17.070Z,7.29
2023-04-17T21:49:49.214Z,7.27
2023-04-17T21:52:17.158Z,7.27
2023-04-17T21:54:44.363Z,7.24
2023-04-17T21:57:14.889Z,7.19
2023-04-17T21:59:42.897Z,7.17
2023-04-17T22:02:10.013Z,7.15
2023-04-17T22:04:37.104Z,7.14
2023-04-17T22:07:05.228Z,7.09
2023-04-17T22:09:34.492Z,7.08
2023-04-17T22:12:15.154Z,7.01
2023-04-17T22:14:45.000Z,7.00
2023-04-17T22:17:13.369Z,6.98
2023-04-17T22:19:42.993Z,6.94
2023-04-17T22:22:13.014Z,6.96
2023-04-17T22:24:41.777Z,6.99
2023-04-17T22:27:09.102Z,6.98
2023-04-17T22:29:36.932Z,6.98
2023-04-17T22:32:04.020Z,7.00
2023-04-17T22:34:31.754Z,6.95
2023-04-17T22:36:58.744Z,6.95
2023-04-17T22:39:29.276Z,6.93
2023-04-17T22:41:56.866Z,6.96
2023-04-17T22:44:24.148Z,6.98
2023-04-17T22:46:51.127Z,6.97
2023-04-17T22:49:20.020Z,7.01
2023-04-17T22:51:49.380Z,7.01
2023-04-17T22:54:22.880Z,6.99
2023-04-17T22:56:50.276Z,6.96
2023-04-17T22:59:17.712Z,6.86
2023-04-17T23:01:46.301Z,6.87
2023-04-17T23:04:15.072Z,6.83
2023-04-17T23:06:44.764Z,6.89
2023-04-17T23:09:12.530Z,6.88
2023-04-17T23:11:41.343Z,6.90
2023-04-17T23:14:09.470Z,6.91
2023-04-17T23:16:36.929Z,6.94
2023-04-17T23:19:06.438Z,6.95
2023-04-17T23:21:33.827Z,6.87
2023-04-17T23:24:03.488Z,6.89
2023-04-17T23:26:30.495Z,6.91
2023-04-17T23:28:58.718Z,6.93
2023-04-17T23:31:27.060Z,6.91
2023-04-17T23:33:58.319Z,6.91
2023-04-17T23:36:27.384Z,6.89
2023-04-17T23:38:55.991Z,6.98
2023-04-17T23:41:25.933Z,7.05
2023-04-17T23:43:54.216Z,7.08
2023-04-17T23:46:21.927Z,7.07
2023-04-17T23:48:51.025Z,7.11
2023-04-17T23:51:18.460Z,7.07
2023-04-17T23:53:45.979Z,7.06
2023-04-17T23:56:14.367Z,7.08
2023-04-17T23:58:43.304Z,7.13
